Estación Meteorológica Peña el Pijo (Robertgarden) [ 12/11/19 23:05:54 CET ]

Fecha Hora Presion(HPa) Temp (°C) Humedad % Rocio (°C) Viento ( m/s) Direccion Lluvia 1Hora(mm) Lluvia 24H(mm) LLuvia Total(mm)
2019-Sep-17 01:01:32 1012.000 15.9 85 13.4         482.48
2019-Sep-17 02:02:01 1012.000 14.9 87 12.8         482.48
2019-Sep-17 03:01:47 1011.800 14.3 87 12.2         482.48
2019-Sep-17 04:01:54 1011.600 13.9 89 12.1         482.48
2019-Sep-17 05:01:50 1011.300 13.5 89 11.7         482.48
2019-Sep-17 06:02:52 1011.700 13.0 89 11.2         482.48
2019-Sep-17 07:01:35 1011.400 13.8 90 12.2         482.48
2019-Sep-17 08:01:46 1010.600 13.7 91 12.3         482.48
2019-Sep-17 09:01:42 1011.000 14.1 91 12.7         482.48
2019-Sep-17 10:01:38 1011.700 15.4 91 14.0         482.48
2019-Sep-17 11:01:52 1011.500 17.5 89 15.7         482.48
2019-Sep-17 12:01:56 1011.300 21.6 80 18.0         482.48
2019-Sep-17 13:31:53 1010.500 26.3 55 16.5 1.3 WSW     482.48
2019-Sep-17 14:01:39 1010.200 27.8 49 16.1         482.48
2019-Sep-17 15:01:42 1009.100 30.3 44 16.7         482.48
2019-Sep-17 16:01:48 1008.700 29.9 42 15.6         482.48
2019-Sep-17 17:02:06 1008.300 28.8 46 16.0         482.48
2019-Sep-17 18:02:07 1008.800 24.9 55 15.2 2.1 WSW     482.48
2019-Sep-17 19:01:44 1010.000 19.5 63 12.2         482.48
2019-Sep-17 20:01:57 1009.700 18.4 68 12.4         482.48
2019-Sep-17 21:01:46 1009.700 16.5 76 12.2         482.48
2019-Sep-17 22:01:50 1010.500 15.8 80 12.4         482.48
2019-Sep-17 23:01:30 1010.800 14.9 83 12.0         482.48

Temperatura Máxima:30°    Temperatura Mínima:13°
Presión Máxima:1012.000 Hpa    Presión Mínima:1008.300 Hpa


Volver